Time;durP1;ratioP1;P1;durP2;ratioP2;P2;SDS_P1;SDS_P2;PMS_P1;PMS_P2;Temp;Humidity;BMP_temperature;BMP_pressure;BME280_temperature;BME280_humidity;BME280_pressure;Samples;Min_cycle;Max_cycle;Signal;HPM_P1;HPM_P2
2021/11/23 00:00:58;;;;;;;7.73;2.47;;;;;;;;;;5009131;28;20022;-73
2021/11/23 00:03:24;;;;;;;3.50;2.40;;;;;;;;;;5007739;28;20034;-72
2021/11/23 00:05:50;;;;;;;3.87;2.53;;;;;;;;;;5007629;28;20029;-73
2021/11/23 00:08:17;;;;;;;6.53;2.97;;;;;;;;;;5009088;28;20029;-73
2021/11/23 00:10:44;;;;;;;5.97;2.70;;;;;;;;;;5007777;28;20026;-72
2021/11/23 00:13:12;;;;;;;3.03;2.30;;;;;;;;;;5007674;28;20041;-73
2021/11/23 00:15:38;;;;;;;4.10;2.80;;;;;;;;;;5007787;28;20029;-70
2021/11/23 00:18:06;;;;;;;3.37;2.27;;;;;;;;;;5009064;28;20088;-72
2021/11/23 00:20:33;;;;;;;5.67;2.83;;;;;;;;;;5007688;28;20014;-71
2021/11/23 00:22:59;;;;;;;4.90;2.77;;;;;;;;;;5009276;28;20068;-72
2021/11/23 00:25:26;;;;;;;5.10;2.77;;;;;;;;;;5009146;28;20096;-72
2021/11/23 00:27:52;;;;;;;4.00;2.93;;;;;;;;;;5009475;28;20370;-72
2021/11/23 00:30:18;;;;;;;3.23;2.60;;;;;;;;;;5007404;28;20046;-72
2021/11/23 00:32:44;;;;;;;3.27;2.80;;;;;;;;;;5008919;28;20457;-72
2021/11/23 00:35:09;;;;;;;3.77;2.60;;;;;;;;;;5007352;28;20360;-71
2021/11/23 00:37:35;;;;;;;4.83;2.90;;;;;;;;;;5008957;28;20057;-73
2021/11/23 00:40:01;;;;;;;3.60;2.43;;;;;;;;;;5010452;28;20374;-73
2021/11/23 00:42:26;;;;;;;5.07;2.53;;;;;;;;;;5010721;28;20018;-72
2021/11/23 00:44:53;;;;;;;3.47;2.53;;;;;;;;;;5011023;28;20393;-71
2021/11/23 00:47:19;;;;;;;2.77;2.20;;;;;;;;;;5010693;28;20432;-73
2021/11/23 00:49:45;;;;;;;5.07;2.10;;;;;;;;;;5012274;28;20034;-71
2021/11/23 00:52:12;;;;;;;4.30;2.27;;;;;;;;;;5010615;28;20108;-71
2021/11/23 00:54:38;;;;;;;5.27;1.93;;;;;;;;;;5010819;28;20025;-72
2021/11/23 00:57:04;;;;;;;3.27;2.00;;;;;;;;;;5012129;28;20022;-71
2021/11/23 00:59:30;;;;;;;2.40;2.00;;;;;;;;;;5010486;28;20116;-71
2021/11/23 01:01:56;;;;;;;4.80;2.20;;;;;;;;;;5011936;28;20022;-72
2021/11/23 01:04:21;;;;;;;2.87;1.93;;;;;;;;;;5010497;28;20536;-71
2021/11/23 01:06:49;;;;;;;3.93;2.47;;;;;;;;;;5010529;28;20030;-70
2021/11/23 01:09:15;;;;;;;5.10;2.30;;;;;;;;;;5010177;28;20060;-71
2021/11/23 01:11:42;;;;;;;4.60;2.60;;;;;;;;;;5011631;28;20414;-72
2021/11/23 01:14:08;;;;;;;6.07;2.33;;;;;;;;;;5012208;28;20029;-75
2021/11/23 01:16:35;;;;;;;3.03;2.00;;;;;;;;;;5010345;28;20099;-71
2021/11/23 01:19:00;;;;;;;3.07;2.20;;;;;;;;;;5011831;28;20370;-72
2021/11/23 01:21:26;;;;;;;4.17;2.60;;;;;;;;;;5009987;28;20034;-73
2021/11/23 01:23:53;;;;;;;3.47;2.23;;;;;;;;;;5010328;28;20037;-72
2021/11/23 01:26:20;;;;;;;5.73;2.20;;;;;;;;;;5011551;28;20130;-71
2021/11/23 01:28:45;;;;;;;2.80;2.30;;;;;;;;;;5010331;28;20075;-73
2021/11/23 01:31:12;;;;;;;3.57;2.23;;;;;;;;;;5009978;28;20022;-72
2021/11/23 01:33:38;;;;;;;3.33;2.77;;;;;;;;;;5009980;28;20136;-72
2021/11/23 01:36:03;;;;;;;3.20;2.20;;;;;;;;;;5010086;28;20120;-72
2021/11/23 01:38:30;;;;;;;8.30;2.00;;;;;;;;;;5009752;28;20486;-73
2021/11/23 01:40:57;;;;;;;3.53;2.00;;;;;;;;;;5010011;28;20448;-72
2021/11/23 01:43:22;;;;;;;4.37;2.20;;;;;;;;;;5009690;28;20033;-72
2021/11/23 01:45:48;;;;;;;3.00;2.00;;;;;;;;;;5011347;28;20038;-72
2021/11/23 01:48:14;;;;;;;2.47;2.03;;;;;;;;;;5010122;28;20065;-70
2021/11/23 01:50:40;;;;;;;3.97;2.50;;;;;;;;;;5011526;28;20038;-73
2021/11/23 01:53:07;;;;;;;2.50;2.30;;;;;;;;;;5009877;28;20026;-72
2021/11/23 01:55:35;;;;;;;5.83;2.63;;;;;;;;;;5011300;28;20021;-72
2021/11/23 01:58:03;;;;;;;6.63;2.50;;;;;;;;;;5011132;28;20585;-72
2021/11/23 02:00:29;;;;;;;7.10;2.80;;;;;;;;;;5009466;28;20026;-71
2021/11/23 02:02:54;;;;;;;4.47;3.00;;;;;;;;;;5009691;28;20026;-72
2021/11/23 02:05:20;;;;;;;5.97;3.63;;;;;;;;;;5010964;28;20565;-73
2021/11/23 02:07:46;;;;;;;4.60;2.70;;;;;;;;;;5009575;28;20033;-72
2021/11/23 02:10:11;;;;;;;4.27;2.63;;;;;;;;;;5009325;28;20478;-72
2021/11/23 02:12:37;;;;;;;7.60;2.50;;;;;;;;;;5010655;28;20022;-71
2021/11/23 02:15:07;;;;;;;5.07;3.10;;;;;;;;;;5010482;28;20030;-72
2021/11/23 02:17:33;;;;;;;5.67;3.67;;;;;;;;;;5008962;28;20037;-73
2021/11/23 02:20:01;;;;;;;8.80;3.57;;;;;;;;;;5010625;28;20453;-71
2021/11/23 02:22:28;;;;;;;6.27;3.33;;;;;;;;;;5008999;28;20164;-72
2021/11/23 02:24:53;;;;;;;5.30;3.23;;;;;;;;;;5010487;28;20033;-72
2021/11/23 02:27:19;;;;;;;6.07;2.90;;;;;;;;;;5009207;28;20032;-71
2021/11/23 02:29:45;;;;;;;6.63;3.13;;;;;;;;;;5010394;28;20036;-71
2021/11/23 02:32:10;;;;;;;5.47;3.30;;;;;;;;;;5010171;28;20042;-71
2021/11/23 02:34:36;;;;;;;7.97;3.23;;;;;;;;;;5008749;28;20022;-72
2021/11/23 02:37:01;;;;;;;3.70;2.57;;;;;;;;;;5008677;28;20025;-73
2021/11/23 02:39:27;;;;;;;5.60;3.20;;;;;;;;;;5010414;28;20030;-70
2021/11/23 02:41:53;;;;;;;7.53;3.50;;;;;;;;;;5008796;28;20470;-71
2021/11/23 02:44:20;;;;;;;4.57;3.43;;;;;;;;;;5008587;28;20084;-72
2021/11/23 02:46:46;;;;;;;4.50;2.97;;;;;;;;;;5010107;28;20030;-72
2021/11/23 02:49:11;;;;;;;7.70;4.00;;;;;;;;;;5008746;28;20026;-73
2021/11/23 02:51:38;;;;;;;7.07;3.17;;;;;;;;;;5010257;28;20028;-72
2021/11/23 02:54:05;;;;;;;6.87;3.33;;;;;;;;;;5008784;28;20022;-70
2021/11/23 02:56:31;;;;;;;6.70;3.17;;;;;;;;;;5009870;28;20033;-72
2021/11/23 02:58:57;;;;;;;6.70;3.47;;;;;;;;;;5008521;28;20028;-72
2021/11/23 03:01:25;;;;;;;6.57;3.87;;;;;;;;;;5008012;28;20064;-72
2021/11/23 03:03:51;;;;;;;7.83;3.80;;;;;;;;;;5009904;28;20085;-72
2021/11/23 03:06:18;;;;;;;8.17;4.30;;;;;;;;;;5008432;28;20087;-71
2021/11/23 03:08:47;;;;;;;9.80;4.03;;;;;;;;;;5008421;28;20060;-71
2021/11/23 03:11:15;;;;;;;7.70;4.20;;;;;;;;;;5009769;28;20030;-72
2021/11/23 03:13:42;;;;;;;9.00;4.17;;;;;;;;;;5008326;28;20041;-71
2021/11/23 03:16:08;;;;;;;9.10;3.60;;;;;;;;;;5009765;28;20508;-73
2021/11/23 03:18:34;;;;;;;9.30;4.50;;;;;;;;;;5008107;28;20030;-72
2021/11/23 03:20:59;;;;;;;7.77;3.80;;;;;;;;;;5008402;28;20361;-72
2021/11/23 03:23:26;;;;;;;5.20;3.77;;;;;;;;;;5008085;28;20040;-72
2021/11/23 03:25:53;;;;;;;8.53;4.33;;;;;;;;;;5009524;28;20030;-71
2021/11/23 03:28:18;;;;;;;7.70;3.87;;;;;;;;;;5009437;28;20041;-72
2021/11/23 03:30:44;;;;;;;6.20;4.20;;;;;;;;;;5008257;28;20497;-70
2021/11/23 03:33:10;;;;;;;9.80;4.23;;;;;;;;;;5009435;28;20409;-73
2021/11/23 03:35:42;;;;;;;9.40;5.27;;;;;;;;;;5007962;28;20474;-72
2021/11/23 03:38:09;;;;;;;6.90;4.22;;;;;;;;;;5008190;28;20099;-72
2021/11/23 03:40:37;;;;;;;5.93;3.87;;;;;;;;;;5009533;28;20682;-72
2021/11/23 03:43:04;;;;;;;9.20;4.13;;;;;;;;;;5008087;28;20026;-73
2021/11/23 03:45:30;;;;;;;7.63;3.47;;;;;;;;;;5007851;28;20061;-73
2021/11/23 03:47:55;;;;;;;7.80;3.73;;;;;;;;;;5009422;28;20025;-71
2021/11/23 03:50:22;;;;;;;7.13;3.57;;;;;;;;;;5009171;28;20038;-71
2021/11/23 03:52:48;;;;;;;5.97;3.83;;;;;;;;;;5008125;28;20052;-72
2021/11/23 03:55:17;;;;;;;12.17;3.80;;;;;;;;;;4991548;28;20036;-73
2021/11/23 03:57:44;;;;;;;6.97;3.93;;;;;;;;;;5007954;28;20073;-72
2021/11/23 04:00:12;;;;;;;9.73;4.90;;;;;;;;;;5009260;28;20022;-72
2021/11/23 04:02:38;;;;;;;9.40;4.20;;;;;;;;;;5007613;28;20022;-71
2021/11/23 04:05:04;;;;;;;5.70;4.00;;;;;;;;;;5007791;28;20120;-72
2021/11/23 04:07:30;;;;;;;11.60;4.37;;;;;;;;;;5008958;28;20030;-71
2021/11/23 04:09:55;;;;;;;7.60;4.37;;;;;;;;;;5007828;28;20029;-73
2021/11/23 04:12:21;;;;;;;5.97;3.50;;;;;;;;;;5009291;28;20026;-71
2021/11/23 04:14:46;;;;;;;7.63;4.60;;;;;;;;;;5011653;28;20382;-72
2021/11/23 04:17:12;;;;;;;8.43;4.33;;;;;;;;;;5011693;28;20418;-71
2021/11/23 04:19:38;;;;;;;8.37;4.13;;;;;;;;;;5012448;28;20033;-71
2021/11/23 04:22:06;;;;;;;7.37;4.13;;;;;;;;;;5011430;28;20030;-72
2021/11/23 04:24:33;;;;;;;11.00;3.97;;;;;;;;;;5012792;28;20100;-71
2021/11/23 04:26:58;;;;;;;9.00;4.53;;;;;;;;;;5012901;28;20022;-70
2021/11/23 04:29:24;;;;;;;7.53;4.47;;;;;;;;;;5012293;28;20034;-73
2021/11/23 04:31:50;;;;;;;6.40;4.00;;;;;;;;;;5011177;28;20037;-72
2021/11/23 04:34:16;;;;;;;13.50;4.30;;;;;;;;;;5011155;28;20390;-72
2021/11/23 04:36:42;;;;;;;7.80;4.20;;;;;;;;;;5010900;28;20034;-71
2021/11/23 04:39:10;;;;;;;10.07;4.57;;;;;;;;;;5011095;28;20140;-72
2021/11/23 04:41:35;;;;;;;10.53;4.33;;;;;;;;;;5010703;28;20030;-73
2021/11/23 04:44:02;;;;;;;10.57;4.50;;;;;;;;;;5011019;28;20136;-72
2021/11/23 04:46:27;;;;;;;13.00;4.27;;;;;;;;;;5012120;28;20026;-72
2021/11/23 04:48:53;;;;;;;8.63;4.40;;;;;;;;;;5011144;28;20026;-72
2021/11/23 04:51:18;;;;;;;8.07;4.17;;;;;;;;;;5010943;28;20051;-72
2021/11/23 04:53:44;;;;;;;8.33;4.80;;;;;;;;;;5010788;28;20034;-72
2021/11/23 04:56:10;;;;;;;11.67;4.77;;;;;;;;;;5010740;28;20117;-73
2021/11/23 04:58:37;;;;;;;11.77;4.23;;;;;;;;;;5010555;28;20026;-72
2021/11/23 05:01:03;;;;;;;10.17;4.40;;;;;;;;;;5012184;28;20033;-71
2021/11/23 05:03:29;;;;;;;14.83;4.43;;;;;;;;;;5012044;28;20041;-71
2021/11/23 05:05:54;;;;;;;9.53;4.33;;;;;;;;;;5010798;28;20049;-72
2021/11/23 05:08:20;;;;;;;12.27;5.57;;;;;;;;;;5012097;28;20052;-71
2021/11/23 05:10:45;;;;;;;12.33;4.67;;;;;;;;;;5012068;28;20455;-73
2021/11/23 05:13:11;;;;;;;7.23;4.80;;;;;;;;;;5010932;28;20036;-71
2021/11/23 05:15:37;;;;;;;7.00;4.50;;;;;;;;;;5010231;28;20437;-71
2021/11/23 05:18:02;;;;;;;10.30;4.73;;;;;;;;;;5011953;28;20025;-71
2021/11/23 05:20:28;;;;;;;10.97;5.80;;;;;;;;;;5009969;28;20474;-73
2021/11/23 05:22:53;;;;;;;12.40;4.87;;;;;;;;;;5011492;28;20302;-71
2021/11/23 05:25:19;;;;;;;7.67;4.20;;;;;;;;;;5009988;28;20157;-71
2021/11/23 05:27:45;;;;;;;7.43;4.20;;;;;;;;;;5010042;28;20398;-72
2021/11/23 05:30:11;;;;;;;12.23;4.40;;;;;;;;;;5010379;28;20112;-72
2021/11/23 05:32:38;;;;;;;8.93;4.17;;;;;;;;;;5009940;28;20253;-73
2021/11/23 05:35:04;;;;;;;7.47;4.23;;;;;;;;;;5010219;28;20029;-71
2021/11/23 05:37:30;;;;;;;9.60;5.13;;;;;;;;;;5010307;28;20482;-71
2021/11/23 05:39:56;;;;;;;10.67;4.77;;;;;;;;;;5010046;28;20041;-72
2021/11/23 05:42:21;;;;;;;10.37;5.47;;;;;;;;;;5011253;28;20083;-72
2021/11/23 05:44:47;;;;;;;8.23;4.23;;;;;;;;;;5009952;28;20128;-71
2021/11/23 05:47:12;;;;;;;8.33;4.07;;;;;;;;;;5009780;28;20026;-73
2021/11/23 05:49:39;;;;;;;14.57;4.53;;;;;;;;;;5010801;28;20102;-73
2021/11/23 05:52:04;;;;;;;13.30;5.53;;;;;;;;;;5009687;28;20505;-70
2021/11/23 05:54:31;;;;;;;14.37;5.07;;;;;;;;;;5009631;28;20030;-72
2021/11/23 05:56:57;;;;;;;8.27;4.40;;;;;;;;;;5009761;28;20474;-71
2021/11/23 05:59:22;;;;;;;14.10;5.07;;;;;;;;;;5010094;28;20045;-73
2021/11/23 06:01:48;;;;;;;6.00;4.00;;;;;;;;;;5011057;28;20241;-72
2021/11/23 06:04:13;;;;;;;11.53;6.63;;;;;;;;;;5009550;28;20455;-71
2021/11/23 06:06:39;;;;;;;9.83;5.40;;;;;;;;;;5010520;28;20036;-72
2021/11/23 06:09:06;;;;;;;8.03;5.47;;;;;;;;;;5009822;28;20032;-73
2021/11/23 06:11:32;;;;;;;12.30;6.47;;;;;;;;;;5010867;28;20462;-71
2021/11/23 06:13:58;;;;;;;12.67;5.23;;;;;;;;;;5010785;28;20466;-72
2021/11/23 06:16:24;;;;;;;12.13;5.37;;;;;;;;;;5010304;28;20109;-73
2021/11/23 06:18:50;;;;;;;12.00;6.13;;;;;;;;;;5010738;28;20100;-70
2021/11/23 06:21:15;;;;;;;9.97;5.13;;;;;;;;;;5009340;28;20030;-72
2021/11/23 06:23:43;;;;;;;13.60;6.80;;;;;;;;;;5010620;28;20382;-71
2021/11/23 06:26:09;;;;;;;7.70;4.93;;;;;;;;;;5010757;28;20474;-72
2021/11/23 06:28:34;;;;;;;8.40;6.00;;;;;;;;;;5008562;28;20034;-72
2021/11/23 06:31:00;;;;;;;10.30;5.83;;;;;;;;;;5008799;28;20037;-72
2021/11/23 06:33:26;;;;;;;19.20;9.90;;;;;;;;;;5010213;28;20050;-72
2021/11/23 06:35:52;;;;;;;11.67;5.53;;;;;;;;;;5008563;28;20149;-72
2021/11/23 06:38:17;;;;;;;18.53;8.03;;;;;;;;;;5008510;28;20057;-72
2021/11/23 06:40:43;;;;;;;11.80;6.83;;;;;;;;;;5008087;28;20030;-71
2021/11/23 06:43:10;;;;;;;12.73;6.73;;;;;;;;;;5009661;28;20036;-72
2021/11/23 06:45:38;;;;;;;11.00;5.87;;;;;;;;;;5009500;28;20470;-71
2021/11/23 06:48:08;;;;;;;22.03;6.57;;;;;;;;;;5009024;28;20030;-71
2021/11/23 06:50:33;;;;;;;19.10;7.07;;;;;;;;;;5009998;28;20025;-73
2021/11/23 06:53:04;;;;;;;13.73;7.00;;;;;;;;;;4965777;28;20495;-72
2021/11/23 06:55:30;;;;;;;16.17;6.80;;;;;;;;;;4941999;29;20147;-72
2021/11/23 06:57:56;;;;;;;10.27;5.93;;;;;;;;;;4948898;29;20198;-71
2021/11/23 07:00:24;;;;;;;12.43;5.80;;;;;;;;;;4951005;28;20031;-71
2021/11/23 07:02:50;;;;;;;14.70;6.60;;;;;;;;;;4949091;28;20206;-71
2021/11/23 07:05:18;;;;;;;13.03;7.20;;;;;;;;;;4949071;28;20495;-74
2021/11/23 07:07:43;;;;;;;15.10;7.37;;;;;;;;;;4950849;28;20162;-72
2021/11/23 07:10:11;;;;;;;15.37;7.47;;;;;;;;;;4949714;28;20117;-73
2021/11/23 07:12:37;;;;;;;14.27;6.10;;;;;;;;;;4951066;28;20030;-72
2021/11/23 07:15:05;;;;;;;11.03;6.37;;;;;;;;;;4949152;28;20071;-72
2021/11/23 07:17:31;;;;;;;10.43;5.73;;;;;;;;;;4947222;29;20503;-75
2021/11/23 07:19:56;;;;;;;16.90;6.67;;;;;;;;;;4948099;28;20050;-72
2021/11/23 07:22:22;;;;;;;11.73;6.40;;;;;;;;;;4948758;28;20380;-72
2021/11/23 07:24:47;;;;;;;15.77;8.00;;;;;;;;;;4945634;28;20451;-72
2021/11/23 07:27:13;;;;;;;18.43;7.23;;;;;;;;;;4948390;29;20582;-71
2021/11/23 07:29:39;;;;;;;16.40;7.40;;;;;;;;;;4944405;29;20611;-72
2021/11/23 07:32:07;;;;;;;17.93;8.77;;;;;;;;;;4949140;29;20054;-71
2021/11/23 07:34:33;;;;;;;14.23;7.47;;;;;;;;;;4947056;28;20050;-72
2021/11/23 07:36:58;;;;;;;13.40;7.30;;;;;;;;;;4944140;29;20551;-71
2021/11/23 07:39:26;;;;;;;17.37;8.10;;;;;;;;;;4947142;28;20520;-72
2021/11/23 07:41:51;;;;;;;12.17;6.97;;;;;;;;;;4933123;29;20023;-70
2021/11/23 07:44:17;;;;;;;10.70;6.70;;;;;;;;;;4949413;28;20043;-72
2021/11/23 07:46:42;;;;;;;11.30;6.20;;;;;;;;;;4947904;28;20039;-72
2021/11/23 07:49:08;;;;;;;14.77;6.23;;;;;;;;;;4951632;28;20031;-74
2021/11/23 07:51:35;;;;;;;10.63;6.03;;;;;;;;;;4951632;28;20033;-74
2021/11/23 07:54:01;;;;;;;16.30;7.10;;;;;;;;;;4953206;28;20400;-72
2021/11/23 07:56:28;;;;;;;14.13;7.40;;;;;;;;;;4953139;28;20035;-71
2021/11/23 07:58:54;;;;;;;18.93;8.10;;;;;;;;;;4951028;29;20039;-71
2021/11/23 08:01:20;;;;;;;12.43;7.43;;;;;;;;;;4938641;28;20298;-72
2021/11/23 08:03:45;;;;;;;17.30;7.00;;;;;;;;;;4973616;28;20345;-74
2021/11/23 08:06:11;;;;;;;17.93;8.57;;;;;;;;;;4968944;28;20498;-73
2021/11/23 08:08:39;;;;;;;19.33;9.90;;;;;;;;;;4968440;28;20035;-75
2021/11/23 08:11:07;;;;;;;18.43;7.70;;;;;;;;;;4966416;28;20034;-73
2021/11/23 08:13:33;;;;;;;14.70;7.43;;;;;;;;;;4967336;28;20130;-73
2021/11/23 08:16:03;;;;;;;16.27;8.37;;;;;;;;;;4963370;28;20042;-72
2021/11/23 08:18:33;;;;;;;17.77;8.17;;;;;;;;;;4964791;28;20034;-71
2021/11/23 08:20:59;;;;;;;13.57;7.80;;;;;;;;;;4964809;28;20038;-75
2021/11/23 08:23:24;;;;;;;16.17;8.27;;;;;;;;;;4967018;28;20046;-74
2021/11/23 08:25:51;;;;;;;18.13;8.40;;;;;;;;;;4966649;28;20047;-72
2021/11/23 08:28:18;;;;;;;18.10;7.70;;;;;;;;;;4966743;28;20069;-73
2021/11/23 08:30:46;;;;;;;16.57;7.00;;;;;;;;;;4965566;28;20037;-72
2021/11/23 08:33:11;;;;;;;19.67;7.93;;;;;;;;;;4965187;28;20042;-74
2021/11/23 08:35:37;;;;;;;13.40;7.73;;;;;;;;;;4962237;28;20027;-72
2021/11/23 08:38:02;;;;;;;9.70;7.20;;;;;;;;;;4965025;28;20036;-71
2021/11/23 08:40:28;;;;;;;14.03;6.87;;;;;;;;;;4963711;28;20045;-72
2021/11/23 08:42:54;;;;;;;14.40;6.90;;;;;;;;;;4964688;28;20110;-72
2021/11/23 08:45:21;;;;;;;13.57;8.17;;;;;;;;;;4962989;28;20129;-74
2021/11/23 08:47:47;;;;;;;15.83;7.53;;;;;;;;;;4964466;28;20362;-72
2021/11/23 08:50:13;;;;;;;14.83;7.87;;;;;;;;;;4964382;28;20137;-73
2021/11/23 08:52:39;;;;;;;18.27;7.00;;;;;;;;;;4966120;28;20101;-72
2021/11/23 08:55:06;;;;;;;16.97;6.20;;;;;;;;;;4961962;28;20523;-73
2021/11/23 08:57:33;;;;;;;13.37;7.83;;;;;;;;;;4965715;28;20046;-72
2021/11/23 09:00:12;;;;;;;11.23;6.97;;;;;;;;;;4963173;28;20038;-72
2021/11/23 09:02:38;;;;;;;13.93;7.10;;;;;;;;;;4963279;28;20081;-74
2021/11/23 09:05:06;;;;;;;13.90;7.20;;;;;;;;;;4963989;28;20559;-73
2021/11/23 09:07:32;;;;;;;11.60;5.33;;;;;;;;;;4966355;28;20066;-72
2021/11/23 09:09:59;;;;;;;13.23;6.87;;;;;;;;;;4960484;28;20062;-72
2021/11/23 09:12:25;;;;;;;12.20;5.90;;;;;;;;;;4964167;28;20026;-72
2021/11/23 09:14:50;;;;;;;16.60;5.40;;;;;;;;;;4960789;28;20069;-72
2021/11/23 09:17:17;;;;;;;10.30;5.00;;;;;;;;;;4960635;28;20031;-72
2021/11/23 09:19:43;;;;;;;9.40;5.13;;;;;;;;;;4963927;28;20041;-73
2021/11/23 09:22:08;;;;;;;12.97;7.20;;;;;;;;;;4963284;28;20023;-73
2021/11/23 09:24:35;;;;;;;8.17;5.27;;;;;;;;;;4959492;28;20049;-74
2021/11/23 09:27:01;;;;;;;13.53;5.10;;;;;;;;;;4964974;28;20046;-73
2021/11/23 09:29:27;;;;;;;16.37;6.07;;;;;;;;;;4961135;28;20043;-71
2021/11/23 09:31:53;;;;;;;16.43;7.47;;;;;;;;;;4955752;28;20062;-72
2021/11/23 09:34:20;;;;;;;8.03;4.70;;;;;;;;;;4958932;28;20697;-73
2021/11/23 09:36:46;;;;;;;7.67;4.83;;;;;;;;;;4957996;28;20058;-73
2021/11/23 09:39:12;;;;;;;10.87;5.17;;;;;;;;;;4961569;28;20050;-73
2021/11/23 09:41:39;;;;;;;10.10;4.90;;;;;;;;;;4962280;28;20054;-73
2021/11/23 09:44:06;;;;;;;8.87;4.83;;;;;;;;;;4961782;28;20037;-72
2021/11/23 09:46:34;;;;;;;11.30;5.40;;;;;;;;;;4960760;28;20043;-73
2021/11/23 09:49:01;;;;;;;11.50;4.60;;;;;;;;;;4945316;28;20623;-74
2021/11/23 09:51:28;;;;;;;10.23;5.30;;;;;;;;;;4974071;28;20338;-72
2021/11/23 09:53:56;;;;;;;9.53;4.33;;;;;;;;;;4959189;28;20038;-72
2021/11/23 09:56:22;;;;;;;9.87;3.97;;;;;;;;;;4959643;28;20035;-72
2021/11/23 09:58:54;;;;;;;11.33;4.37;;;;;;;;;;4964059;28;20054;-71
2021/11/23 10:01:25;;;;;;;10.77;4.83;;;;;;;;;;4960578;28;20023;-72
2021/11/23 10:03:52;;;;;;;6.20;3.90;;;;;;;;;;4963205;28;20057;-73
2021/11/23 10:06:24;;;;;;;9.40;4.00;;;;;;;;;;4958194;28;20034;-73
2021/11/23 10:08:52;;;;;;;21.52;6.15;;;;;;;;;;4945939;28;20042;-72
2021/11/23 10:11:29;;;;;;;7.80;3.80;;;;;;;;;;4960501;28;20478;-72
2021/11/23 10:13:58;;;;;;;13.77;4.20;;;;;;;;;;4961289;28;20534;-71
2021/11/23 10:16:35;;;;;;;10.93;4.13;;;;;;;;;;4959588;28;20183;-71
2021/11/23 10:19:05;;;;;;;8.00;4.60;;;;;;;;;;4963590;28;20054;-75
2021/11/23 10:21:31;;;;;;;8.53;3.70;;;;;;;;;;4960931;28;20031;-72
2021/11/23 10:23:57;;;;;;;8.67;3.77;;;;;;;;;;4962497;28;20648;-73
2021/11/23 10:26:40;;;;;;;7.90;3.93;;;;;;;;;;4960274;28;20113;-72
2021/11/23 10:29:08;;;;;;;8.87;4.40;;;;;;;;;;4964778;28;20490;-71
2021/11/23 10:31:40;;;;;;;4.80;3.23;;;;;;;;;;4961170;28;20033;-74
2021/11/23 10:34:11;;;;;;;7.03;3.17;;;;;;;;;;4962769;28;20495;-72
2021/11/23 10:36:47;;;;;;;5.87;3.50;;;;;;;;;;4958475;28;20403;-73
2021/11/23 10:39:21;;;;;;;10.87;4.20;;;;;;;;;;4960220;28;20037;-74
2021/11/23 10:41:53;;;;;;;7.33;3.27;;;;;;;;;;4963293;28;20026;-72
2021/11/23 10:44:21;;;;;;;6.28;3.78;;;;;;;;;;4962330;28;20581;-74
2021/11/23 10:46:52;;;;;;;6.27;3.20;;;;;;;;;;4962412;28;20134;-72
2021/11/23 10:49:35;;;;;;;7.90;3.90;;;;;;;;;;4961784;28;20099;-72
2021/11/23 10:52:04;;;;;;;5.77;3.17;;;;;;;;;;4961381;28;20035;-73
2021/11/23 10:54:31;;;;;;;7.73;3.20;;;;;;;;;;4959329;28;20109;-74
2021/11/23 10:56:59;;;;;;;7.37;3.53;;;;;;;;;;4961291;28;20070;-73
2021/11/23 10:59:25;;;;;;;5.53;3.70;;;;;;;;;;4961469;28;20121;-72
2021/11/23 11:01:51;;;;;;;9.60;4.03;;;;;;;;;;4960542;28;20026;-72
2021/11/23 11:04:19;;;;;;;7.80;3.33;;;;;;;;;;4960602;28;20404;-72
2021/11/23 11:06:47;;;;;;;8.70;4.07;;;;;;;;;;4959590;28;20041;-73
2021/11/23 11:09:15;;;;;;;3.97;2.77;;;;;;;;;;4956478;28;20051;-71
2021/11/23 11:11:42;;;;;;;4.97;3.37;;;;;;;;;;4961031;28;20038;-74
2021/11/23 11:14:11;;;;;;;6.57;2.93;;;;;;;;;;4962644;28;20046;-72
2021/11/23 11:16:38;;;;;;;6.40;3.03;;;;;;;;;;4959016;28;20037;-73
2021/11/23 11:19:16;;;;;;;6.37;2.73;;;;;;;;;;4959457;28;20030;-73
2021/11/23 11:21:47;;;;;;;5.20;3.07;;;;;;;;;;4962098;28;20030;-73
2021/11/23 11:24:25;;;;;;;5.50;3.20;;;;;;;;;;4960062;28;20400;-74
2021/11/23 11:26:55;;;;;;;6.03;2.93;;;;;;;;;;4956939;28;20046;-73
2021/11/23 11:29:30;;;;;;;6.87;4.10;;;;;;;;;;4959669;28;20049;-72
2021/11/23 11:31:59;;;;;;;7.40;3.57;;;;;;;;;;4960271;28;20061;-71
2021/11/23 11:34:27;;;;;;;5.63;3.80;;;;;;;;;;4957347;28;20059;-75
2021/11/23 11:37:11;;;;;;;6.70;3.60;;;;;;;;;;4958144;28;20756;-72
2021/11/23 11:39:39;;;;;;;8.40;3.07;;;;;;;;;;4955028;28;20039;-71
2021/11/23 11:42:09;;;;;;;7.63;3.20;;;;;;;;;;4954452;28;20488;-72
2021/11/23 11:44:38;;;;;;;7.30;3.70;;;;;;;;;;4957003;28;20126;-74
2021/11/23 11:47:06;;;;;;;7.47;3.30;;;;;;;;;;4953083;28;20043;-74
2021/11/23 11:49:56;;;;;;;6.53;3.47;;;;;;;;;;4961235;28;20070;-72
2021/11/23 11:52:25;;;;;;;9.17;3.10;;;;;;;;;;4959756;28;20014;-72
2021/11/23 11:55:12;;;;;;;5.10;3.33;;;;;;;;;;4956154;28;20122;-72
2021/11/23 11:57:50;;;;;;;7.70;3.00;;;;;;;;;;4959988;28;20548;-72
2021/11/23 12:00:21;;;;;;;12.17;3.93;;;;;;;;;;4960842;28;20166;-74
2021/11/23 12:02:48;;;;;;;6.30;3.50;;;;;;;;;;4958712;28;20082;-72
2021/11/23 12:05:15;;;;;;;9.77;3.33;;;;;;;;;;4957799;28;20553;-72
2021/11/23 12:07:45;;;;;;;7.10;3.70;;;;;;;;;;4961153;28;20121;-71
2021/11/23 12:10:29;;;;;;;8.77;3.67;;;;;;;;;;4960238;28;20026;-73
2021/11/23 12:13:10;;;;;;;4.27;2.53;;;;;;;;;;4960335;28;20026;-72
2021/11/23 12:15:51;;;;;;;5.97;2.63;;;;;;;;;;4956743;28;20657;-72
2021/11/23 12:18:53;;;;;;;7.63;2.90;;;;;;;;;;4959263;28;20022;-74
2021/11/23 12:21:20;;;;;;;10.85;3.97;;;;;;;;;;4959112;28;20041;-72
2021/11/23 12:23:57;;;;;;;5.87;2.63;;;;;;;;;;4962380;28;20026;-72
2021/11/23 12:26:37;;;;;;;8.50;4.10;;;;;;;;;;4957888;28;20466;-71
2021/11/23 12:29:12;;;;;;;7.47;4.27;;;;;;;;;;4962154;28;21043;-73
2021/11/23 12:31:46;;;;;;;13.60;4.60;;;;;;;;;;4943055;28;20389;-75
2021/11/23 12:34:13;;;;;;;6.20;3.77;;;;;;;;;;4960706;28;20337;-73
2021/11/23 12:36:45;;;;;;;9.13;3.63;;;;;;;;;;4960204;28;20038;-73
2021/11/23 12:39:16;;;;;;;6.67;2.97;;;;;;;;;;4964405;28;20085;-74
2021/11/23 12:41:44;;;;;;;4.27;2.53;;;;;;;;;;4964046;28;20687;-74
2021/11/23 12:44:33;;;;;;;5.50;3.40;;;;;;;;;;4965775;28;20034;-73
2021/11/23 12:47:10;;;;;;;7.57;3.50;;;;;;;;;;4961560;28;20114;-72
2021/11/23 12:49:36;;;;;;;3.67;2.87;;;;;;;;;;4964704;28;20867;-71
2021/11/23 12:52:15;;;;;;;5.33;2.50;;;;;;;;;;4963370;28;20050;-73
2021/11/23 12:54:47;;;;;;;5.47;2.40;;;;;;;;;;4963025;28;20043;-73
2021/11/23 12:57:18;;;;;;;5.93;2.77;;;;;;;;;;4963049;28;20380;-73
2021/11/23 12:59:52;;;;;;;7.30;3.10;;;;;;;;;;4944949;28;20369;-72
2021/11/23 13:02:44;;;;;;;6.57;2.40;;;;;;;;;;4963018;28;20031;-72
2021/11/23 13:05:19;;;;;;;7.10;2.88;;;;;;;;;;4957803;28;20510;-73
2021/11/23 13:07:52;;;;;;;10.53;4.07;;;;;;;;;;4961494;28;20039;-72
2021/11/23 13:10:20;;;;;;;5.23;2.67;;;;;;;;;;4963964;28;20054;-74
2021/11/23 13:12:52;;;;;;;11.53;3.20;;;;;;;;;;4962461;28;20430;-73
2021/11/23 13:15:21;;;;;;;8.50;2.33;;;;;;;;;;4958549;28;20038;-73
2021/11/23 13:17:53;;;;;;;4.50;2.40;;;;;;;;;;4962683;28;20577;-73
2021/11/23 13:20:29;;;;;;;3.53;2.28;;;;;;;;;;4961315;28;20128;-71
2021/11/23 13:22:58;;;;;;;5.70;2.57;;;;;;;;;;4960276;28;20041;-72
2021/11/23 13:25:30;;;;;;;8.87;5.13;;;;;;;;;;4958271;28;20095;-71
2021/11/23 13:27:57;;;;;;;3.43;1.83;;;;;;;;;;4962372;28;20174;-72
2021/11/23 13:30:38;;;;;;;7.50;2.47;;;;;;;;;;4963255;28;20109;-73
2021/11/23 13:33:08;;;;;;;5.03;2.20;;;;;;;;;;4961544;28;20054;-73
2021/11/23 13:35:33;;;;;;;5.27;3.53;;;;;;;;;;4960850;28;20035;-73
2021/11/23 13:37:59;;;;;;;6.40;3.30;;;;;;;;;;4946124;28;20031;-71
2021/11/23 13:40:26;;;;;;;7.50;3.67;;;;;;;;;;4962224;28;20149;-74
2021/11/23 13:42:51;;;;;;;6.80;3.47;;;;;;;;;;4962353;28;20050;-72
2021/11/23 13:45:21;;;;;;;7.33;2.77;;;;;;;;;;4958607;28;20162;-71
2021/11/23 13:47:50;;;;;;;4.70;2.17;;;;;;;;;;4963525;28;20136;-72
2021/11/23 13:50:18;;;;;;;8.37;2.33;;;;;;;;;;4961549;28;20023;-71
2021/11/23 13:52:52;;;;;;;8.07;3.40;;;;;;;;;;4960199;28;20375;-73
2021/11/23 13:55:26;;;;;;;3.43;2.10;;;;;;;;;;4960394;28;20085;-72
2021/11/23 13:57:53;;;;;;;10.93;3.17;;;;;;;;;;4948368;28;20049;-74
2021/11/23 14:00:24;;;;;;;6.20;2.50;;;;;;;;;;4963403;28;20026;-73
2021/11/23 14:02:50;;;;;;;5.07;2.07;;;;;;;;;;4963403;28;20038;-75
2021/11/23 14:05:34;;;;;;;7.47;2.30;;;;;;;;;;4958941;28;20030;-73
2021/11/23 14:08:01;;;;;;;4.13;2.00;;;;;;;;;;4962007;28;20084;-74
2021/11/23 14:11:03;;;;;;;6.27;2.77;;;;;;;;;;4961841;28;20063;-73
2021/11/23 14:13:32;;;;;;;8.23;4.43;;;;;;;;;;4975313;28;20121;-74
2021/11/23 14:16:08;;;;;;;9.00;3.57;;;;;;;;;;4958284;28;20038;-72
2021/11/23 14:18:36;;;;;;;6.37;2.43;;;;;;;;;;4961166;28;20038;-73
2021/11/23 14:21:12;;;;;;;11.83;3.93;;;;;;;;;;4959638;28;20146;-73
2021/11/23 14:23:44;;;;;;;4.33;2.03;;;;;;;;;;4975966;28;20484;-74
2021/11/23 14:26:18;;;;;;;5.40;2.55;;;;;;;;;;4957904;28;20153;-73
2021/11/23 14:28:52;;;;;;;3.47;2.07;;;;;;;;;;4964042;28;20073;-74
2021/11/23 14:31:28;;;;;;;4.90;2.23;;;;;;;;;;4978194;28;20046;-72
2021/11/23 14:33:55;;;;;;;13.33;4.63;;;;;;;;;;4970903;28;20201;-71
2021/11/23 14:36:44;;;;;;;12.63;5.50;;;;;;;;;;4958792;28;20570;-72
2021/11/23 14:39:11;;;;;;;8.17;3.17;;;;;;;;;;4958716;28;20038;-71
2021/11/23 14:41:37;;;;;;;16.90;3.50;;;;;;;;;;4959832;28;20069;-72
2021/11/23 14:44:04;;;;;;;4.47;2.20;;;;;;;;;;4962277;28;20060;-72